Time;durP1;ratioP1;P1;durP2;ratioP2;P2;SDS_P1;SDS_P2;PMS_P1;PMS_P2;Temp;Humidity;BMP_temperature;BMP_pressure;BME280_temperature;BME280_humidity;BME280_pressure;Samples;Min_cycle;Max_cycle;Signal;HPM_P1;HPM_P2
2021/08/11 00:01:48;;;;;;;10.63;6.47;;;;;;;14.14;73.59;101193.23;1765983;80;21058;-79
2021/08/11 00:04:13;;;;;;;8.70;5.85;;;;;;;14.12;73.66;101198.94;1774013;80;21854;-79
2021/08/11 00:06:40;;;;;;;9.20;5.60;;;;;;;14.11;73.74;101197.58;1766789;80;21093;-79
2021/08/11 00:09:07;;;;;;;11.75;5.67;;;;;;;14.12;73.80;101200.70;1768251;80;21544;-79
2021/08/11 00:11:34;;;;;;;26.42;7.30;;;;;;;14.10;73.79;101194.50;1772527;80;21078;-79
2021/08/11 00:14:01;;;;;;;9.13;5.72;;;;;;;14.07;73.84;101188.69;1769370;80;21118;-78
2021/08/11 00:16:28;;;;;;;7.40;5.40;;;;;;;14.07;73.87;101187.81;1774560;80;22519;-78
2021/08/11 00:18:55;;;;;;;10.65;6.22;;;;;;;14.03;73.85;101184.22;1774569;80;21576;-78
2021/08/11 00:21:22;;;;;;;7.60;5.10;;;;;;;14.02;73.88;101190.80;1774793;80;21094;-78
2021/08/11 00:23:49;;;;;;;7.75;5.28;;;;;;;13.98;73.89;101187.20;1774811;80;21063;-79
2021/08/11 00:26:15;;;;;;;13.28;5.03;;;;;;;13.96;73.97;101196.47;1768643;80;21073;-79
2021/08/11 00:28:42;;;;;;;7.30;5.12;;;;;;;13.94;74.06;101198.61;1774455;80;21840;-79
2021/08/11 00:31:09;;;;;;;9.33;5.37;;;;;;;13.92;74.13;101201.66;1758676;80;21082;-79
2021/08/11 00:33:36;;;;;;;13.48;5.95;;;;;;;13.91;74.21;101194.59;1774688;80;21525;-79
2021/08/11 00:36:03;;;;;;;8.80;5.67;;;;;;;13.89;74.25;101187.03;1774626;80;21082;-78
2021/08/11 00:38:30;;;;;;;12.00;5.37;;;;;;;13.88;74.32;101182.63;1756801;80;21024;-78
2021/08/11 00:40:57;;;;;;;9.73;5.72;;;;;;;13.86;74.29;101181.70;1774702;80;21834;-79
2021/08/11 00:43:26;;;;;;;10.45;5.58;;;;;;;13.83;74.30;101185.16;1748517;80;21565;-79
2021/08/11 00:45:55;;;;;;;9.73;6.08;;;;;;;13.82;74.36;101185.16;1774896;80;21047;-79
2021/08/11 00:48:27;;;;;;;14.20;5.85;;;;;;;13.81;74.47;101197.48;1773570;80;21539;-79
2021/08/11 00:50:54;;;;;;;12.88;5.90;;;;;;;13.79;74.47;101201.45;1771173;80;21058;-79
2021/08/11 00:53:23;;;;;;;10.20;6.10;;;;;;;13.74;74.55;101203.11;1773115;80;21728;-79
2021/08/11 00:55:52;;;;;;;7.35;5.70;;;;;;;13.75;74.65;101200.02;1769363;80;21091;-78
2021/08/11 00:58:18;;;;;;;8.48;5.15;;;;;;;13.75;74.80;101202.66;1772527;80;21526;-79
2021/08/11 01:00:48;;;;;;;8.33;5.60;;;;;;;13.75;74.79;101200.02;1750315;80;21346;-78
2021/08/11 01:03:18;;;;;;;8.80;5.62;;;;;;;13.75;74.81;101197.38;1762135;80;21055;-79
2021/08/11 01:05:45;;;;;;;9.68;5.47;;;;;;;13.73;74.80;101197.34;1774728;80;21817;-78
2021/08/11 01:08:14;;;;;;;8.28;5.62;;;;;;;13.72;74.78;101194.25;1748353;80;21529;-79
2021/08/11 01:10:41;;;;;;;8.98;5.37;;;;;;;13.70;74.85;101197.30;1769869;80;21094;-79
2021/08/11 01:13:10;;;;;;;7.55;4.60;;;;;;;13.69;74.86;101195.94;1769023;80;21133;-79
2021/08/11 01:15:38;;;;;;;9.18;4.35;;;;;;;13.68;74.95;101197.67;1774458;80;21051;-77
2021/08/11 01:18:05;;;;;;;7.80;4.67;;;;;;;13.66;74.87;101198.08;1774433;80;21819;-80
2021/08/11 01:20:33;;;;;;;9.30;4.28;;;;;;;13.64;74.90;101197.59;1774425;80;21117;-77
2021/08/11 01:23:05;;;;;;;7.83;4.65;;;;;;;13.62;74.92;101196.23;1748676;80;21063;-77
2021/08/11 01:25:43;;;;;;;7.95;4.83;;;;;;;13.59;74.89;101202.38;1767032;80;21055;-77
2021/08/11 01:28:36;;;;;;;8.35;4.95;;;;;;;13.57;74.91;101203.18;1769701;80;21050;-77
2021/08/11 01:31:18;;;;;;;7.92;4.62;;;;;;;13.55;74.94;101206.23;1766350;80;22642;-77
2021/08/11 01:33:59;;;;;;;7.53;4.60;;;;;;;13.53;74.99;101206.63;1766217;80;21054;-77
2021/08/11 01:36:41;;;;;;;7.75;4.53;;;;;;;13.52;75.01;101199.58;1777297;80;21606;-77
2021/08/11 01:39:35;;;;;;;9.43;4.65;;;;;;;13.51;75.13;101196.45;1754610;80;21085;-78
2021/08/11 01:42:15;;;;;;;9.40;4.47;;;;;;;13.52;75.23;101184.59;1774527;80;21067;-78
2021/08/11 01:44:55;;;;;;;12.37;4.37;;;;;;;13.54;75.32;101180.22;1774423;80;21835;-78
2021/08/11 01:47:25;;;;;;;8.28;4.80;;;;;;;13.58;75.33;101177.20;1774260;80;21066;-79
2021/08/11 01:49:52;;;;;;;7.20;3.95;;;;;;;13.64;75.39;101185.70;1771356;80;21046;-78
2021/08/11 01:52:18;;;;;;;8.10;4.47;;;;;;;13.65;75.33;101176.47;1764128;80;21215;-79
2021/08/11 01:54:45;;;;;;;6.87;4.15;;;;;;;13.68;75.28;101175.63;1765859;80;21046;-78
2021/08/11 01:57:13;;;;;;;7.60;3.70;;;;;;;13.69;75.28;101180.95;1765886;80;21775;-79
2021/08/11 01:59:40;;;;;;;7.37;4.53;;;;;;;13.71;75.27;101175.70;1774768;80;21039;-78
2021/08/11 02:02:07;;;;;;;6.33;4.37;;;;;;;13.71;75.19;101171.73;1758754;80;21015;-78
2021/08/11 02:04:35;;;;;;;8.58;4.22;;;;;;;13.69;75.20;101170.38;1773689;80;21046;-78
2021/08/11 02:07:03;;;;;;;7.87;4.60;;;;;;;13.70;75.22;101175.22;1774351;80;21086;-78
2021/08/11 02:09:29;;;;;;;7.53;3.98;;;;;;;13.69;75.26;101186.68;1761270;80;21758;-78
2021/08/11 02:11:56;;;;;;;7.05;3.80;;;;;;;13.67;75.21;101197.23;1773111;80;21059;-78
2021/08/11 02:14:23;;;;;;;8.40;4.70;;;;;;;13.67;75.32;101193.70;1769165;80;21516;-79
2021/08/11 02:16:50;;;;;;;8.85;4.28;;;;;;;13.69;75.37;101194.62;1772518;80;21229;-78
2021/08/11 02:19:17;;;;;;;5.55;3.80;;;;;;;13.70;75.36;101199.95;1770956;80;21034;-79
2021/08/11 02:21:44;;;;;;;8.98;4.00;;;;;;;13.70;75.35;101193.33;1774900;80;21911;-78
2021/08/11 02:24:11;;;;;;;8.38;3.40;;;;;;;13.71;75.29;101200.83;1774955;80;21343;-78
2021/08/11 02:26:51;;;;;;;8.58;3.62;;;;;;;13.73;75.34;101194.69;1765372;80;21043;-78
2021/08/11 02:29:44;;;;;;;4.95;3.60;;;;;;;13.77;75.30;101191.67;1767180;80;21359;-78
2021/08/11 02:32:45;;;;;;;8.68;3.83;;;;;;;13.80;75.35;101186.45;1681513;85;21071;-78
2021/08/11 02:35:30;;;;;;;10.25;4.00;;;;;;;13.84;75.21;101188.73;1679213;83;21842;-78
2021/08/11 02:38:21;;;;;;;8.65;4.03;;;;;;;13.84;75.17;101190.94;1679929;84;21623;-78
2021/08/11 02:41:12;;;;;;;9.10;3.75;;;;;;;13.83;75.16;101193.10;1682237;84;21105;-77
2021/08/11 02:43:57;;;;;;;6.53;3.27;;;;;;;13.84;75.19;101185.64;1678496;84;21058;-77
2021/08/11 02:46:26;;;;;;;6.75;3.98;;;;;;;13.86;75.19;101183.91;1683601;85;21169;-77
2021/08/11 02:49:02;;;;;;;10.65;3.90;;;;;;;13.89;75.22;101180.02;1683814;85;21782;-77
2021/08/11 02:51:31;;;;;;;8.08;4.05;;;;;;;13.90;75.15;101183.09;1680518;85;21098;-77
2021/08/11 02:54:04;;;;;;;10.38;3.95;;;;;;;13.91;75.17;101180.93;1682688;85;21660;-78
2021/08/11 02:56:32;;;;;;;4.72;3.50;;;;;;;13.93;75.17;101171.26;1679727;83;21106;-77
2021/08/11 02:59:00;;;;;;;9.83;4.10;;;;;;;13.98;75.25;101173.97;1680461;84;21619;-77
2021/08/11 03:01:30;;;;;;;6.42;3.37;;;;;;;14.02;75.29;101165.25;1660981;85;21754;-77
2021/08/11 03:03:59;;;;;;;5.62;3.33;;;;;;;14.07;75.29;101160.90;1674905;84;21051;-77
2021/08/11 03:06:30;;;;;;;6.35;3.37;;;;;;;14.13;75.29;101162.77;1682829;84;21100;-77
2021/08/11 03:08:56;;;;;;;6.97;3.40;;;;;;;14.18;75.23;101157.12;1730271;80;21031;-77
2021/08/11 03:11:23;;;;;;;7.05;3.58;;;;;;;14.17;75.12;101154.00;1773322;80;21094;-78
2021/08/11 03:13:54;;;;;;;6.00;3.40;;;;;;;14.19;75.18;101148.33;1759303;80;21824;-77
2021/08/11 03:16:19;;;;;;;8.10;3.30;;;;;;;14.22;75.21;101144.83;1774102;80;21050;-77
2021/08/11 03:18:45;;;;;;;3.65;3.12;;;;;;;14.25;75.12;101148.86;1774632;80;21090;-77
2021/08/11 03:21:12;;;;;;;5.08;3.37;;;;;;;14.25;75.12;101139.59;1749228;80;21039;-80
2021/08/11 03:23:41;;;;;;;6.45;3.35;;;;;;;14.25;75.11;101140.92;1748054;80;21536;-78
2021/08/11 03:26:08;;;;;;;5.45;3.25;;;;;;;14.26;75.17;101138.27;1772337;80;22546;-78
2021/08/11 03:28:34;;;;;;;8.23;3.33;;;;;;;14.29;75.18;101140.98;1774403;80;21042;-78
2021/08/11 03:31:03;;;;;;;3.98;2.98;;;;;;;14.32;75.19;101142.36;1774751;80;21140;-78
2021/08/11 03:33:30;;;;;;;5.15;2.83;;;;;;;14.37;75.17;101143.74;1774711;80;21072;-78
2021/08/11 03:35:57;;;;;;;6.37;3.22;;;;;;;14.40;75.17;101155.72;1774746;80;21054;-78
2021/08/11 03:38:27;;;;;;;4.08;2.98;;;;;;;14.45;75.18;101150.48;1771657;80;22412;-78
2021/08/11 03:40:53;;;;;;;9.60;2.98;;;;;;;14.48;75.17;101155.39;1780523;80;21106;-78
2021/08/11 03:43:22;;;;;;;6.83;3.40;;;;;;;14.51;75.12;101162.08;1778446;80;21008;-78
2021/08/11 03:45:51;;;;;;;6.62;3.27;;;;;;;14.57;75.15;101167.94;1774427;80;21062;-78
2021/08/11 03:48:18;;;;;;;8.15;3.27;;;;;;;14.60;75.07;101169.28;1771767;80;21106;-78
2021/08/11 03:50:45;;;;;;;6.97;2.85;;;;;;;14.60;74.99;101162.66;1771598;80;21842;-78
2021/08/11 03:53:14;;;;;;;6.33;2.75;;;;;;;14.66;75.15;101160.13;1745552;80;21121;-78
2021/08/11 03:55:41;;;;;;;4.92;3.27;;;;;;;14.76;75.17;101166.45;1772666;80;21082;-78
2021/08/11 03:58:12;;;;;;;5.53;3.33;;;;;;;14.87;75.09;101165.28;1746674;80;21125;-78
2021/08/11 04:00:48;;;;;;;5.00;3.40;;;;;;;15.05;75.33;101165.95;1774551;80;21082;-79
2021/08/11 04:03:10;;;;;;;5.33;2.92;;;;;;;15.43;75.55;101166.86;1772953;80;21801;-79
2021/08/11 04:05:36;;;;;;;4.87;3.02;;;;;;;15.78;75.10;101157.99;1769235;80;21071;-79
2021/08/11 04:08:05;;;;;;;4.05;3.05;;;;;;;16.10;74.88;101146.38;1773847;80;21074;-79
2021/08/11 04:10:32;;;;;;;5.28;3.20;;;;;;;16.40;74.37;101159.88;1768607;80;21698;-80
2021/08/11 04:13:02;;;;;;;6.10;3.20;;;;;;;16.56;73.81;101156.91;1775148;80;21066;-79
2021/08/11 04:15:32;;;;;;;6.00;3.30;;;;;;;16.63;73.34;101159.61;1769289;80;21813;-80
2021/08/11 04:17:58;;;;;;;6.03;3.58;;;;;;;16.67;73.06;101153.88;1776545;80;21551;-80
2021/08/11 04:20:24;;;;;;;3.75;2.87;;;;;;;16.74;72.86;101152.13;1775229;80;21047;-79
2021/08/11 04:22:51;;;;;;;6.83;2.80;;;;;;;16.78;72.75;101164.14;1774981;80;21090;-80
2021/08/11 04:25:18;;;;;;;5.15;3.27;;;;;;;16.99;72.89;101173.16;1775271;80;21089;-81
2021/08/11 04:27:45;;;;;;;5.75;3.08;;;;;;;17.08;72.40;101178.52;1780761;80;21815;-83
2021/08/11 04:30:16;;;;;;;5.28;3.72;;;;;;;17.07;72.08;101178.06;1774411;80;21101;-79
2021/08/11 04:32:43;;;;;;;5.58;3.72;;;;;;;17.02;71.81;101178.02;1775002;80;21043;-80
2021/08/11 04:35:10;;;;;;;7.35;5.45;;;;;;;16.99;71.75;101186.00;1762238;80;21185;-80
2021/08/11 04:37:38;;;;;;;4.58;3.45;;;;;;;16.96;71.62;101188.63;1771218;80;21015;-80
2021/08/11 04:40:09;;;;;;;4.75;3.45;;;;;;;16.95;71.64;101190.86;1774978;80;22517;-80
2021/08/11 04:42:36;;;;;;;5.70;3.75;;;;;;;16.96;71.56;101187.30;1757040;80;21008;-78
2021/08/11 04:45:15;;;;;;;4.62;3.12;;;;;;;16.96;71.48;101183.77;1774396;80;21675;-79
2021/08/11 04:47:44;;;;;;;3.92;3.20;;;;;;;16.99;71.57;101182.02;1764545;80;21334;-80
2021/08/11 04:50:15;;;;;;;5.97;3.83;;;;;;;17.01;71.41;101182.91;1792723;79;21046;-79
2021/08/11 04:52:46;;;;;;;5.28;3.45;;;;;;;17.04;71.36;101190.00;1803227;79;21696;-80
2021/08/11 04:55:16;;;;;;;4.90;3.70;;;;;;;17.07;71.28;101186.03;1795525;79;21762;-79
2021/08/11 04:57:45;;;;;;;7.40;3.52;;;;;;;17.10;71.25;101188.28;1800164;79;21098;-79
2021/08/11 05:00:18;;;;;;;4.83;3.22;;;;;;;17.17;71.28;101181.64;1782489;79;21031;-79
2021/08/11 05:02:50;;;;;;;5.42;3.50;;;;;;;17.25;71.29;101182.14;1809548;78;21082;-79
2021/08/11 05:05:20;;;;;;;6.58;3.80;;;;;;;17.35;71.14;101187.05;1811105;78;21803;-78
2021/08/11 05:07:54;;;;;;;6.40;3.37;;;;;;;17.48;71.12;101190.66;1815161;78;21058;-79
2021/08/11 05:10:22;;;;;;;6.58;3.30;;;;;;;17.61;70.96;101195.59;1815290;78;21141;-78
2021/08/11 05:12:49;;;;;;;4.05;3.22;;;;;;;17.74;70.79;101190.73;1809058;78;21411;-78
2021/08/11 05:15:18;;;;;;;5.08;3.45;;;;;;;17.92;70.70;101194.35;1809192;78;20995;-79
2021/08/11 05:17:45;;;;;;;5.62;3.85;;;;;;;18.08;70.41;101195.28;1809660;79;21906;-79
2021/08/11 05:20:14;;;;;;;9.38;3.60;;;;;;;18.20;70.12;101200.60;1814469;78;21074;-79
2021/08/11 05:22:40;;;;;;;5.85;3.12;;;;;;;18.31;69.88;101205.49;1815818;78;21089;-79
2021/08/11 05:25:08;;;;;;;5.05;3.47;;;;;;;18.36;69.60;101210.39;1816425;78;21050;-80
2021/08/11 05:27:35;;;;;;;6.08;3.50;;;;;;;18.38;69.23;101205.95;1812520;78;21179;-79
2021/08/11 05:30:05;;;;;;;4.67;2.83;;;;;;;18.39;69.22;101212.16;1814552;78;22630;-78
2021/08/11 05:32:33;;;;;;;4.53;3.25;;;;;;;18.44;69.17;101218.39;1783352;79;21590;-79
2021/08/11 05:35:03;;;;;;;5.08;3.20;;;;;;;18.57;69.17;101222.82;1811266;78;21115;-79
2021/08/11 05:37:30;;;;;;;6.95;3.02;;;;;;;18.68;68.96;101221.48;1812184;79;21124;-79
2021/08/11 05:40:00;;;;;;;4.30;3.20;;;;;;;18.79;68.78;101225.03;1808336;78;21111;-79
2021/08/11 05:42:27;;;;;;;7.90;3.30;;;;;;;18.93;68.72;101223.70;1810660;78;21866;-79
2021/08/11 05:44:54;;;;;;;8.75;4.37;;;;;;;19.08;68.46;101217.90;1803763;78;21055;-79
2021/08/11 05:47:21;;;;;;;6.53;3.85;;;;;;;19.27;68.25;101216.05;1806711;78;20996;-79
2021/08/11 05:49:49;;;;;;;5.47;3.17;;;;;;;19.45;67.94;101212.44;1813460;78;21061;-79
2021/08/11 05:52:19;;;;;;;4.97;3.42;;;;;;;19.69;67.90;101212.32;1816558;79;22218;-78
2021/08/11 05:54:53;;;;;;;8.60;3.87;;;;;;;19.91;67.50;101217.10;1815541;78;22510;-81
2021/08/11 05:57:41;;;;;;;4.72;3.37;;;;;;;20.15;67.00;101219.19;1802560;78;21055;-78
2021/08/11 06:00:12;;;;;;;6.25;3.87;;;;;;;20.32;66.54;101213.72;1810756;78;21055;-78
2021/08/11 06:02:43;;;;;;;6.70;3.58;;;;;;;20.50;66.34;101215.37;1810433;79;21623;-78
2021/08/11 06:05:09;;;;;;;4.72;3.20;;;;;;;20.69;65.85;101212.11;1801141;79;21031;-78
2021/08/11 06:07:36;;;;;;;6.65;3.70;;;;;;;20.82;65.53;101207.06;1798737;78;21873;-78
2021/08/11 06:10:04;;;;;;;6.42;3.27;;;;;;;20.95;65.35;101210.05;1804857;78;21053;-80
2021/08/11 06:12:31;;;;;;;4.78;3.47;;;;;;;21.07;64.94;101214.83;1810100;78;21059;-80
2021/08/11 06:14:58;;;;;;;4.95;3.70;;;;;;;21.16;64.63;101213.39;1812240;79;21578;-80
2021/08/11 06:17:25;;;;;;;7.15;4.00;;;;;;;21.20;64.38;101211.56;1810219;78;21046;-78
2021/08/11 06:19:52;;;;;;;7.47;3.58;;;;;;;21.34;64.35;101209.59;1809655;78;22562;-78
2021/08/11 06:22:18;;;;;;;7.78;3.80;;;;;;;21.53;64.13;101202.27;1794356;79;21626;-78
2021/08/11 06:24:45;;;;;;;5.83;4.10;;;;;;;21.74;63.99;101206.45;1797595;79;21105;-79
2021/08/11 06:27:12;;;;;;;5.50;4.45;;;;;;;21.93;63.61;101205.72;1801432;79;21046;-79
2021/08/11 06:29:39;;;;;;;6.92;4.05;;;;;;;22.09;63.20;101201.91;1798447;78;21019;-78
2021/08/11 06:32:09;;;;;;;7.25;4.30;;;;;;;22.27;62.90;101206.58;1800396;79;22647;-77
2021/08/11 06:34:34;;;;;;;8.13;3.90;;;;;;;22.29;62.20;101202.95;1796120;78;21035;-78
2021/08/11 06:37:01;;;;;;;5.50;4.10;;;;;;;22.38;62.03;101202.38;1796351;79;21591;-90
2021/08/11 06:39:33;;;;;;;4.50;3.47;;;;;;;22.42;61.70;101192.03;1800730;78;21232;-78
2021/08/11 06:42:00;;;;;;;6.25;3.70;;;;;;;22.49;61.62;101197.72;1801010;78;21559;-79
2021/08/11 06:44:29;;;;;;;6.72;5.05;;;;;;;22.62;61.64;101203.30;1800200;79;21031;-79
2021/08/11 06:46:55;;;;;;;7.67;4.50;;;;;;;22.69;60.98;101201.38;1800736;79;21059;-79
2021/08/11 06:49:22;;;;;;;8.23;4.25;;;;;;;22.63;60.63;101201.02;1804681;78;21871;-79
2021/08/11 06:51:49;;;;;;;5.17;3.60;;;;;;;22.59;60.66;101205.14;1803879;78;21078;-78
2021/08/11 06:54:16;;;;;;;6.17;4.10;;;;;;;22.65;60.82;101197.86;1800800;78;21047;-78
2021/08/11 06:56:42;;;;;;;5.83;3.90;;;;;;;22.69;60.54;101198.25;1800973;79;22364;-79
2021/08/11 06:59:10;;;;;;;6.05;3.90;;;;;;;22.74;60.52;101199.50;1775180;79;39077;-79
2021/08/11 07:01:37;;;;;;;6.08;3.75;;;;;;;22.79;60.03;101202.12;1805681;79;21544;-79
2021/08/11 07:04:04;;;;;;;9.63;4.30;;;;;;;22.78;60.04;101197.18;1800902;78;21043;-79
2021/08/11 07:06:32;;;;;;;6.08;3.90;;;;;;;22.76;59.99;101175.33;1802133;79;21145;-79
2021/08/11 07:08:58;;;;;;;9.50;4.20;;;;;;;22.93;59.97;101199.16;1799771;79;21957;-79
2021/08/11 07:11:25;;;;;;;6.53;3.85;;;;;;;23.04;59.78;101199.87;1799074;79;21038;-79
2021/08/11 07:13:52;;;;;;;5.62;4.15;;;;;;;23.04;59.50;101181.95;1801851;78;21054;-79
2021/08/11 07:16:18;;;;;;;6.60;4.33;;;;;;;23.23;59.46;101201.73;1801988;78;21055;-79
2021/08/11 07:18:45;;;;;;;8.15;3.80;;;;;;;23.33;59.35;101199.30;1802081;78;21066;-79
2021/08/11 07:21:12;;;;;;;6.25;5.42;;;;;;;23.43;59.52;101204.02;1802606;79;22538;-79
2021/08/11 07:23:38;;;;;;;7.30;4.25;;;;;;;23.40;58.92;101194.20;1805424;79;21562;-79
2021/08/11 07:26:08;;;;;;;7.75;3.90;;;;;;;23.39;58.65;101200.50;1803423;78;21121;-79
2021/08/11 07:28:34;;;;;;;4.80;3.90;;;;;;;23.31;58.51;101205.12;1797434;78;21028;-79
2021/08/11 07:31:01;;;;;;;8.15;4.08;;;;;;;23.23;58.43;101207.98;1796731;79;21067;-79
2021/08/11 07:33:28;;;;;;;7.75;4.40;;;;;;;23.09;58.56;101208.73;1802419;79;22043;-79
2021/08/11 07:35:55;;;;;;;7.15;5.78;;;;;;;23.09;58.56;101208.73;1797978;78;21011;-79
2021/08/11 07:38:22;;;;;;;8.00;4.70;;;;;;;23.03;58.19;101215.10;1802721;78;21105;-79
2021/08/11 07:40:49;;;;;;;7.80;5.65;;;;;;;22.94;58.38;101206.28;1798303;79;21725;-79
2021/08/11 07:43:15;;;;;;;6.87;3.72;;;;;;;22.93;58.36;101213.45;1804076;79;21062;-79
2021/08/11 07:45:42;;;;;;;7.50;4.12;;;;;;;22.97;58.61;101218.31;1802175;79;21827;-79
2021/08/11 07:48:09;;;;;;;6.10;4.37;;;;;;;23.12;58.38;101219.86;1799192;78;21050;-78
2021/08/11 07:50:37;;;;;;;6.17;4.03;;;;;;;23.16;58.34;101210.38;1803496;78;21051;-79
2021/08/11 07:53:04;;;;;;;7.67;4.78;;;;;;;23.40;58.26;101220.19;1802244;79;21042;-81
2021/08/11 07:55:32;;;;;;;7.25;5.83;;;;;;;23.55;57.66;101227.91;1805376;79;21074;-78
2021/08/11 07:58:00;;;;;;;7.17;5.12;;;;;;;23.57;57.24;101227.42;1801712;79;21866;-78
2021/08/11 08:00:27;;;;;;;6.87;4.45;;;;;;;23.47;56.85;101226.73;1797858;78;20976;-79
2021/08/11 08:02:53;;;;;;;7.20;6.42;;;;;;;23.32;56.72;101224.38;1803514;79;21202;-78
2021/08/11 08:05:21;;;;;;;5.70;4.17;;;;;;;23.21;56.83;101221.02;1803424;79;21086;-78
2021/08/11 08:07:48;;;;;;;7.05;5.00;;;;;;;23.20;57.00;101219.23;1802942;78;21099;-80
2021/08/11 08:10:14;;;;;;;6.40;4.20;;;;;;;23.34;57.06;101223.00;1801707;78;21769;-80
2021/08/11 08:12:43;;;;;;;6.42;5.08;;;;;;;23.49;56.81;101219.53;1799922;78;21043;-78
2021/08/11 08:15:11;;;;;;;7.67;4.90;;;;;;;23.54;56.18;101227.51;1801591;79;21062;-78
2021/08/11 08:17:38;;;;;;;6.83;3.42;;;;;;;23.45;56.13;101236.63;1801628;78;21177;-78
2021/08/11 08:20:06;;;;;;;4.10;3.30;;;;;;;23.36;56.05;101235.48;1801359;78;21081;-79
2021/08/11 08:22:37;;;;;;;6.60;4.22;;;;;;;23.39;56.53;101231.39;1803481;78;21729;-78
2021/08/11 08:25:02;;;;;;;6.20;3.15;;;;;;;23.64;56.62;101233.56;1801040;79;21532;-78
2021/08/11 08:27:29;;;;;;;5.65;3.12;;;;;;;23.84;56.34;101234.05;1803507;79;20980;-78
2021/08/11 08:29:57;;;;;;;3.65;2.80;;;;;;;24.00;56.08;101233.22;1795994;78;21035;-81
2021/08/11 08:32:30;;;;;;;4.33;2.72;;;;;;;24.08;55.68;101236.20;1796058;79;21121;-79
2021/08/11 08:34:56;;;;;;;5.25;2.70;;;;;;;24.25;55.23;101235.33;1800333;79;21852;-79
2021/08/11 08:37:31;;;;;;;5.75;4.60;;;;;;;24.32;54.94;101244.14;1800126;78;21498;-79
2021/08/11 08:39:57;;;;;;;12.73;4.90;;;;;;;24.29;54.49;101237.05;1800321;79;21686;-79
2021/08/11 08:42:24;;;;;;;5.78;3.47;;;;;;;24.17;54.40;101238.67;1801029;79;21067;-79
2021/08/11 08:44:51;;;;;;;4.55;3.25;;;;;;;24.16;54.42;101240.95;1801908;79;21563;-79
2021/08/11 08:47:17;;;;;;;6.55;4.37;;;;;;;24.11;54.56;101237.48;1802648;79;21950;-78
2021/08/11 08:49:46;;;;;;;9.45;7.83;;;;;;;24.17;54.29;101237.33;1803183;79;21050;-79
2021/08/11 08:52:18;;;;;;;8.60;6.50;;;;;;;24.21;54.47;101234.55;1802149;79;21089;-79
2021/08/11 08:54:46;;;;;;;6.50;4.87;;;;;;;24.44;54.58;101230.41;1801295;78;21694;-79
2021/08/11 08:57:16;;;;;;;7.00;3.80;;;;;;;24.69;54.12;101239.23;1801553;78;21070;-79
2021/08/11 08:59:44;;;;;;;5.53;3.27;;;;;;;24.77;53.62;101236.74;1801314;78;21799;-79
2021/08/11 09:02:12;;;;;;;6.67;4.90;;;;;;;24.91;53.35;101233.70;1777030;79;21046;-79
2021/08/11 09:04:40;;;;;;;3.60;3.20;;;;;;;25.11;52.74;101238.98;1770737;80;21123;-78
2021/08/11 09:07:15;;;;;;;8.23;3.52;;;;;;;25.07;52.27;101240.01;1770062;80;21222;-79
2021/08/11 09:09:42;;;;;;;6.03;2.85;;;;;;;25.03;52.08;101240.08;1764546;79;21000;-79
2021/08/11 09:12:16;;;;;;;5.30;3.27;;;;;;;25.11;51.92;101248.42;1794500;79;21717;-79
2021/08/11 09:14:48;;;;;;;8.03;3.40;;;;;;;25.19;51.58;101249.98;1805323;78;21019;-79
2021/08/11 09:17:36;;;;;;;5.83;3.42;;;;;;;25.15;51.11;101250.09;1784824;78;21121;-79
2021/08/11 09:20:06;;;;;;;5.35;3.17;;;;;;;25.01;50.96;101258.56;1778156;78;21124;-79
2021/08/11 09:22:50;;;;;;;4.53;3.80;;;;;;;24.86;50.86;101258.52;1802116;78;21086;-79
2021/08/11 09:25:15;;;;;;;5.22;2.65;;;;;;;24.77;50.75;101256.93;1811275;79;22412;-79
2021/08/11 09:27:43;;;;;;;7.45;3.33;;;;;;;24.55;50.80;101252.59;1811192;79;21058;-79
2021/08/11 09:30:20;;;;;;;8.75;4.22;;;;;;;24.53;50.79;101254.88;1806208;79;21645;-79
2021/08/11 09:33:04;;;;;;;7.85;5.95;;;;;;;24.40;50.82;101263.67;1793042;79;21567;-79
2021/08/11 09:35:37;;;;;;;5.12;4.33;;;;;;;24.23;50.60;101257.34;1805868;78;21591;-79
2021/08/11 09:38:12;;;;;;;4.40;3.05;;;;;;;24.04;50.75;101254.20;1809927;79;22464;-79
2021/08/11 09:40:40;;;;;;;7.22;3.55;;;;;;;24.04;50.99;101248.39;1807628;79;21043;-79
2021/08/11 09:43:16;;;;;;;3.27;2.40;;;;;;;24.13;51.21;101247.73;1799626;79;21080;-79
2021/08/11 09:45:54;;;;;;;4.70;3.30;;;;;;;24.33;51.35;101237.86;1801296;79;21322;-79
2021/08/11 09:48:26;;;;;;;6.00;3.60;;;;;;;24.56;51.21;101240.00;1794680;78;21086;-79
2021/08/11 09:51:01;;;;;;;4.20;3.02;;;;;;;24.77;50.77;101239.43;1797622;79;21685;-79
2021/08/11 09:53:38;;;;;;;4.47;2.60;;;;;;;24.91;50.48;101236.83;1797837;79;21063;-79
2021/08/11 09:56:08;;;;;;;6.78;2.92;;;;;;;25.08;50.08;101235.05;1802892;79;21073;-80
2021/08/11 09:58:46;;;;;;;6.95;3.50;;;;;;;25.10;49.33;101228.69;1798237;79;21260;-80
2021/08/11 10:01:19;;;;;;;3.70;3.22;;;;;;;25.01;49.56;101226.25;1797888;79;21082;-80
2021/08/11 10:04:03;;;;;;;5.33;3.50;;;;;;;25.05;49.45;101227.05;1800589;79;21779;-80
2021/08/11 10:06:32;;;;;;;;;;;;;;;25.05;49.18;101236.00;1803396;79;21007;-80
2021/08/11 10:09:23;;;;;;;4.92;2.80;;;;;;;25.10;49.15;101233.20;1798608;79;20162;-79
2021/08/11 10:11:57;;;;;;;4.58;3.98;;;;;;;25.19;49.39;101231.60;1799766;79;21091;-80
2021/08/11 10:14:27;;;;;;;3.45;2.80;;;;;;;25.31;49.02;101235.31;1800648;78;21058;-78
2021/08/11 10:16:56;;;;;;;4.95;2.70;;;;;;;25.30;48.69;101236.69;1801516;79;22629;-79
2021/08/11 10:19:24;;;;;;;8.08;4.58;;;;;;;25.21;48.21;101235.13;1800502;79;21066;-79
2021/08/11 10:22:00;;;;;;;8.70;7.03;;;;;;;25.20;48.02;101237.39;1800685;78;21038;-79
2021/08/11 10:24:28;;;;;;;6.35;5.70;;;;;;;25.16;48.07;101243.33;1795467;79;21779;-79
2021/08/11 10:26:55;;;;;;;4.17;2.95;;;;;;;25.19;47.50;101236.52;1800215;79;21058;-78
2021/08/11 10:29:24;;;;;;;5.22;2.85;;;;;;;25.13;47.75;101237.14;1797555;79;21745;-81
2021/08/11 10:31:50;;;;;;;5.87;4.22;;;;;;;24.95;46.80;101251.53;1800430;79;21121;-79
2021/08/11 10:34:18;;;;;;;4.85;3.90;;;;;;;24.61;46.52;101236.27;1799910;79;21066;-79
2021/08/11 10:36:46;;;;;;;4.70;3.42;;;;;;;24.36;46.19;101252.12;1794281;79;21002;-79
2021/08/11 10:39:16;;;;;;;5.92;2.40;;;;;;;24.03;46.54;101249.30;1801315;79;21548;-79
2021/08/11 10:41:43;;;;;;;4.20;2.95;;;;;;;23.88;46.98;101246.09;1798492;79;21916;-79
2021/08/11 10:44:22;;;;;;;5.47;2.62;;;;;;;23.90;47.54;101241.55;1803721;79;21019;-79
2021/08/11 10:46:59;;;;;;;5.22;2.55;;;;;;;23.89;47.48;101246.49;1799328;79;21572;-79
2021/08/11 10:49:29;;;;;;;4.20;3.05;;;;;;;23.92;47.74;101248.66;1801085;79;21012;-79
2021/08/11 10:52:08;;;;;;;4.22;3.33;;;;;;;24.00;47.86;101256.55;1776666;79;21027;-79
2021/08/11 10:54:52;;;;;;;4.40;2.25;;;;;;;24.18;47.96;101253.91;1799932;79;21079;-79
2021/08/11 10:57:42;;;;;;;3.33;2.58;;;;;;;24.15;47.62;101254.84;1787275;79;21532;-79
2021/08/11 11:00:28;;;;;;;3.37;2.75;;;;;;;24.04;47.55;101256.89;1802381;79;21034;-79
2021/08/11 11:02:55;;;;;;;4.92;4.37;;;;;;;24.00;47.60;101264.14;1799070;79;21321;-79
2021/08/11 11:05:27;;;;;;;4.17;2.77;;;;;;;23.88;47.49;101263.09;1794598;79;21567;-79
2021/08/11 11:08:14;;;;;;;5.22;4.15;;;;;;;23.66;47.73;101266.66;1800883;79;21771;-81
2021/08/11 11:10:45;;;;;;;4.90;3.35;;;;;;;23.43;47.90;101271.17;1796119;79;21070;-79
2021/08/11 11:13:31;;;;;;;4.53;2.42;;;;;;;23.21;48.37;101266.67;1801930;79;21046;-79
2021/08/11 11:16:01;;;;;;;4.65;2.70;;;;;;;23.28;48.73;101276.39;1799458;79;21066;-80
2021/08/11 11:18:28;;;;;;;5.50;3.77;;;;;;;23.54;48.97;101273.63;1794824;78;21544;-80
2021/08/11 11:21:03;;;;;;;3.12;2.27;;;;;;;23.85;49.02;101280.16;1797061;79;23059;-80
2021/08/11 11:23:43;;;;;;;4.50;2.55;;;;;;;23.95;48.71;101277.27;1799276;79;21027;-80
2021/08/11 11:26:21;;;;;;;3.83;2.75;;;;;;;23.78;48.29;101308.52;1800585;79;21054;-79
2021/08/11 11:29:07;;;;;;;3.67;2.62;;;;;;;23.12;48.11;101295.92;1799145;79;21043;-81
2021/08/11 11:31:48;;;;;;;4.10;2.58;;;;;;;22.77;48.37;101292.05;1799731;79;21781;-79
2021/08/11 11:34:35;;;;;;;4.10;2.92;;;;;;;22.56;48.64;101295.06;1796843;79;21786;-80
2021/08/11 11:37:07;;;;;;;4.78;3.45;;;;;;;22.63;48.76;101293.59;1798301;79;21620;-79
2021/08/11 11:39:43;;;;;;;5.70;4.17;;;;;;;22.63;48.76;101293.59;1801630;79;21539;-79